sensor_id;sensor_type;location;lat;lon;timestamp;P1;durP1;ratioP1;P2;durP2;ratioP2
505;SDS011;551;48.524;9.056;2023-11-21T00:00:12;8.53;;;4.10;;
505;SDS011;551;48.524;9.056;2023-11-21T00:02:40;6.90;;;3.77;;
505;SDS011;551;48.524;9.056;2023-11-21T00:05:07;6.10;;;4.00;;
505;SDS011;551;48.524;9.056;2023-11-21T00:07:33;5.50;;;4.10;;
505;SDS011;551;48.524;9.056;2023-11-21T00:09:59;7.73;;;3.87;;
505;SDS011;551;48.524;9.056;2023-11-21T00:12:24;6.40;;;3.40;;
505;SDS011;551;48.524;9.056;2023-11-21T00:14:50;5.57;;;3.90;;
505;SDS011;551;48.524;9.056;2023-11-21T00:17:15;5.90;;;3.40;;
505;SDS011;551;48.524;9.056;2023-11-21T00:19:41;8.10;;;3.80;;
505;SDS011;551;48.524;9.056;2023-11-21T00:22:07;7.93;;;4.40;;
505;SDS011;551;48.524;9.056;2023-11-21T00:24:34;6.70;;;3.17;;
505;SDS011;551;48.524;9.056;2023-11-21T00:26:59;6.30;;;3.90;;
505;SDS011;551;48.524;9.056;2023-11-21T00:29:25;3.70;;;3.40;;
505;SDS011;551;48.524;9.056;2023-11-21T00:31:51;6.17;;;3.80;;
505;SDS011;551;48.524;9.056;2023-11-21T00:34:16;17.37;;;4.43;;
505;SDS011;551;48.524;9.056;2023-11-21T00:36:42;9.03;;;4.00;;
505;SDS011;551;48.524;9.056;2023-11-21T00:39:07;9.07;;;4.17;;
505;SDS011;551;48.524;9.056;2023-11-21T00:41:33;6.17;;;3.80;;
505;SDS011;551;48.524;9.056;2023-11-21T00:44:00;7.20;;;3.47;;
505;SDS011;551;48.524;9.056;2023-11-21T00:46:25;6.50;;;3.67;;
505;SDS011;551;48.524;9.056;2023-11-21T00:48:54;7.93;;;3.83;;
505;SDS011;551;48.524;9.056;2023-11-21T00:51:20;8.60;;;4.10;;
505;SDS011;551;48.524;9.056;2023-11-21T00:53:47;6.17;;;3.20;;
505;SDS011;551;48.524;9.056;2023-11-21T00:56:12;4.67;;;3.93;;
505;SDS011;551;48.524;9.056;2023-11-21T00:58:39;7.33;;;3.80;;
505;SDS011;551;48.524;9.056;2023-11-21T01:01:08;7.33;;;3.70;;
505;SDS011;551;48.524;9.056;2023-11-21T01:03:34;11.77;;;4.07;;
505;SDS011;551;48.524;9.056;2023-11-21T01:05:59;3.70;;;3.13;;
505;SDS011;551;48.524;9.056;2023-11-21T01:08:25;7.77;;;4.13;;
505;SDS011;551;48.524;9.056;2023-11-21T01:10:50;9.17;;;3.53;;
505;SDS011;551;48.524;9.056;2023-11-21T01:13:16;6.63;;;3.63;;
505;SDS011;551;48.524;9.056;2023-11-21T01:15:42;8.40;;;3.77;;
505;SDS011;551;48.524;9.056;2023-11-21T01:18:07;3.07;;;2.30;;
505;SDS011;551;48.524;9.056;2023-11-21T01:20:33;10.00;;;1.60;;
505;SDS011;551;48.524;9.056;2023-11-21T01:22:59;7.10;;;1.67;;
505;SDS011;551;48.524;9.056;2023-11-21T01:25:25;6.17;;;1.80;;
505;SDS011;551;48.524;9.056;2023-11-21T01:27:50;2.60;;;1.70;;
505;SDS011;551;48.524;9.056;2023-11-21T01:30:16;4.47;;;1.90;;
505;SDS011;551;48.524;9.056;2023-11-21T01:32:42;4.83;;;2.27;;
505;SDS011;551;48.524;9.056;2023-11-21T01:35:08;3.13;;;2.60;;
505;SDS011;551;48.524;9.056;2023-11-21T01:37:35;7.30;;;2.10;;
505;SDS011;551;48.524;9.056;2023-11-21T01:40:01;6.70;;;1.67;;
505;SDS011;551;48.524;9.056;2023-11-21T01:42:27;4.90;;;2.20;;
505;SDS011;551;48.524;9.056;2023-11-21T01:44:54;3.07;;;1.90;;
505;SDS011;551;48.524;9.056;2023-11-21T01:47:20;1.60;;;1.50;;
505;SDS011;551;48.524;9.056;2023-11-21T01:49:46;3.17;;;2.20;;
505;SDS011;551;48.524;9.056;2023-11-21T01:52:12;1.60;;;1.50;;
505;SDS011;551;48.524;9.056;2023-11-21T01:54:38;5.30;;;2.60;;
505;SDS011;551;48.524;9.056;2023-11-21T01:57:04;4.90;;;2.20;;
505;SDS011;551;48.524;9.056;2023-11-21T01:59:34;5.13;;;2.40;;
505;SDS011;551;48.524;9.056;2023-11-21T02:02:02;4.27;;;2.20;;
505;SDS011;551;48.524;9.056;2023-11-21T02:04:32;3.53;;;2.00;;
505;SDS011;551;48.524;9.056;2023-11-21T02:06:59;8.70;;;2.40;;
505;SDS011;551;48.524;9.056;2023-11-21T02:09:25;4.30;;;2.33;;
505;SDS011;551;48.524;9.056;2023-11-21T02:11:52;3.13;;;2.20;;
505;SDS011;551;48.524;9.056;2023-11-21T02:14:18;5.97;;;2.30;;
505;SDS011;551;48.524;9.056;2023-11-21T02:16:47;4.20;;;2.33;;
505;SDS011;551;48.524;9.056;2023-11-21T02:19:17;3.70;;;2.20;;
505;SDS011;551;48.524;9.056;2023-11-21T02:21:50;5.10;;;2.60;;
505;SDS011;551;48.524;9.056;2023-11-21T02:24:20;2.93;;;2.53;;
505;SDS011;551;48.524;9.056;2023-11-21T02:26:46;10.63;;;3.07;;
505;SDS011;551;48.524;9.056;2023-11-21T02:29:12;3.30;;;2.40;;
505;SDS011;551;48.524;9.056;2023-11-21T02:31:38;2.00;;;1.80;;
505;SDS011;551;48.524;9.056;2023-11-21T02:34:12;3.20;;;2.00;;
505;SDS011;551;48.524;9.056;2023-11-21T02:36:39;7.30;;;1.80;;
505;SDS011;551;48.524;9.056;2023-11-21T02:39:04;2.20;;;2.00;;
505;SDS011;551;48.524;9.056;2023-11-21T02:41:32;3.03;;;2.50;;
505;SDS011;551;48.524;9.056;2023-11-21T02:43:57;3.27;;;1.93;;
505;SDS011;551;48.524;9.056;2023-11-21T02:46:23;1.83;;;1.73;;
505;SDS011;551;48.524;9.056;2023-11-21T02:48:48;8.00;;;1.73;;
505;SDS011;551;48.524;9.056;2023-11-21T02:51:16;3.43;;;1.70;;
505;SDS011;551;48.524;9.056;2023-11-21T02:53:41;2.80;;;1.90;;
505;SDS011;551;48.524;9.056;2023-11-21T02:56:07;1.73;;;1.50;;
505;SDS011;551;48.524;9.056;2023-11-21T02:58:32;5.43;;;1.90;;
505;SDS011;551;48.524;9.056;2023-11-21T03:00:58;5.00;;;2.87;;
505;SDS011;551;48.524;9.056;2023-11-21T03:03:23;7.97;;;3.10;;
505;SDS011;551;48.524;9.056;2023-11-21T03:05:50;3.60;;;1.60;;
505;SDS011;551;48.524;9.056;2023-11-21T03:08:15;2.17;;;1.70;;
505;SDS011;551;48.524;9.056;2023-11-21T03:10:41;1.40;;;1.30;;
505;SDS011;551;48.524;9.056;2023-11-21T03:13:06;6.73;;;1.80;;
505;SDS011;551;48.524;9.056;2023-11-21T03:15:33;2.93;;;1.57;;
505;SDS011;551;48.524;9.056;2023-11-21T03:18:00;3.77;;;1.77;;
505;SDS011;551;48.524;9.056;2023-11-21T03:20:25;2.90;;;1.57;;
505;SDS011;551;48.524;9.056;2023-11-21T03:22:51;3.57;;;1.90;;
505;SDS011;551;48.524;9.056;2023-11-21T03:25:16;3.10;;;1.80;;
505;SDS011;551;48.524;9.056;2023-11-21T03:27:42;2.50;;;1.90;;
505;SDS011;551;48.524;9.056;2023-11-21T03:30:09;4.20;;;2.33;;
505;SDS011;551;48.524;9.056;2023-11-21T03:32:36;3.60;;;2.27;;
505;SDS011;551;48.524;9.056;2023-11-21T03:35:01;3.30;;;1.80;;
505;SDS011;551;48.524;9.056;2023-11-21T03:37:28;2.17;;;1.97;;
505;SDS011;551;48.524;9.056;2023-11-21T03:39:54;1.63;;;1.50;;
505;SDS011;551;48.524;9.056;2023-11-21T03:42:20;8.63;;;2.57;;
505;SDS011;551;48.524;9.056;2023-11-21T03:44:45;3.13;;;2.30;;
505;SDS011;551;48.524;9.056;2023-11-21T03:47:11;4.20;;;2.30;;
505;SDS011;551;48.524;9.056;2023-11-21T03:49:37;2.50;;;2.27;;
505;SDS011;551;48.524;9.056;2023-11-21T03:52:03;4.97;;;2.07;;
505;SDS011;551;48.524;9.056;2023-11-21T03:54:28;4.73;;;2.10;;
505;SDS011;551;48.524;9.056;2023-11-21T03:56:55;3.00;;;2.10;;
505;SDS011;551;48.524;9.056;2023-11-21T03:59:21;2.30;;;2.03;;
505;SDS011;551;48.524;9.056;2023-11-21T04:01:49;7.43;;;2.60;;
505;SDS011;551;48.524;9.056;2023-11-21T04:04:15;6.93;;;2.73;;
505;SDS011;551;48.524;9.056;2023-11-21T04:06:41;4.03;;;2.00;;
505;SDS011;551;48.524;9.056;2023-11-21T04:09:06;5.50;;;2.67;;
505;SDS011;551;48.524;9.056;2023-11-21T04:11:32;4.63;;;2.03;;
505;SDS011;551;48.524;9.056;2023-11-21T04:13:57;7.70;;;2.43;;
505;SDS011;551;48.524;9.056;2023-11-21T04:16:23;6.53;;;2.33;;
505;SDS011;551;48.524;9.056;2023-11-21T04:18:49;2.20;;;2.00;;
505;SDS011;551;48.524;9.056;2023-11-21T04:21:14;5.47;;;2.10;;
505;SDS011;551;48.524;9.056;2023-11-21T04:23:40;2.73;;;1.57;;
505;SDS011;551;48.524;9.056;2023-11-21T04:26:05;3.60;;;2.00;;
505;SDS011;551;48.524;9.056;2023-11-21T04:28:31;2.83;;;1.90;;
505;SDS011;551;48.524;9.056;2023-11-21T04:30:57;4.87;;;2.40;;
505;SDS011;551;48.524;9.056;2023-11-21T04:33:22;7.23;;;2.50;;
505;SDS011;551;48.524;9.056;2023-11-21T04:35:48;6.80;;;1.97;;
505;SDS011;551;48.524;9.056;2023-11-21T04:38:13;6.50;;;4.23;;
505;SDS011;551;48.524;9.056;2023-11-21T04:40:39;1.97;;;1.23;;
505;SDS011;551;48.524;9.056;2023-11-21T04:43:04;1.30;;;1.20;;
505;SDS011;551;48.524;9.056;2023-11-21T04:45:30;4.33;;;1.67;;
505;SDS011;551;48.524;9.056;2023-11-21T04:47:55;2.50;;;1.53;;
505;SDS011;551;48.524;9.056;2023-11-21T04:50:21;2.00;;;1.53;;
505;SDS011;551;48.524;9.056;2023-11-21T04:52:47;2.37;;;1.70;;
505;SDS011;551;48.524;9.056;2023-11-21T04:55:12;2.30;;;1.37;;
505;SDS011;551;48.524;9.056;2023-11-21T04:57:38;5.10;;;1.90;;
505;SDS011;551;48.524;9.056;2023-11-21T05:00:06;2.23;;;1.80;;
505;SDS011;551;48.524;9.056;2023-11-21T05:02:32;1.50;;;1.40;;
505;SDS011;551;48.524;9.056;2023-11-21T05:05:03;1.50;;;1.40;;
505;SDS011;551;48.524;9.056;2023-11-21T05:07:30;4.30;;;1.70;;
505;SDS011;551;48.524;9.056;2023-11-21T05:09:57;6.20;;;1.90;;
505;SDS011;551;48.524;9.056;2023-11-21T05:12:23;1.70;;;1.60;;
505;SDS011;551;48.524;9.056;2023-11-21T05:14:50;2.10;;;1.40;;
505;SDS011;551;48.524;9.056;2023-11-21T05:17:16;3.50;;;1.67;;
505;SDS011;551;48.524;9.056;2023-11-21T05:19:41;1.60;;;1.50;;
505;SDS011;551;48.524;9.056;2023-11-21T05:22:08;2.63;;;1.43;;
505;SDS011;551;48.524;9.056;2023-11-21T05:24:33;1.80;;;1.70;;
505;SDS011;551;48.524;9.056;2023-11-21T05:27:00;1.70;;;1.50;;
505;SDS011;551;48.524;9.056;2023-11-21T05:29:25;3.70;;;1.63;;
505;SDS011;551;48.524;9.056;2023-11-21T05:31:51;1.80;;;1.50;;
505;SDS011;551;48.524;9.056;2023-11-21T05:34:18;1.40;;;1.30;;
505;SDS011;551;48.524;9.056;2023-11-21T05:36:43;3.10;;;1.93;;
505;SDS011;551;48.524;9.056;2023-11-21T05:39:10;3.43;;;1.70;;
505;SDS011;551;48.524;9.056;2023-11-21T05:41:36;1.50;;;1.40;;
505;SDS011;551;48.524;9.056;2023-11-21T05:44:02;1.70;;;1.60;;
505;SDS011;551;48.524;9.056;2023-11-21T05:46:27;8.73;;;1.83;;
505;SDS011;551;48.524;9.056;2023-11-21T05:48:53;2.10;;;1.90;;
505;SDS011;551;48.524;9.056;2023-11-21T05:51:19;3.03;;;1.77;;
505;SDS011;551;48.524;9.056;2023-11-21T05:53:45;2.73;;;2.10;;
505;SDS011;551;48.524;9.056;2023-11-21T05:56:11;2.63;;;1.90;;
505;SDS011;551;48.524;9.056;2023-11-21T05:58:38;2.10;;;1.90;;
505;SDS011;551;48.524;9.056;2023-11-21T06:01:05;1.87;;;1.77;;
505;SDS011;551;48.524;9.056;2023-11-21T06:03:32;1.70;;;1.60;;
505;SDS011;551;48.524;9.056;2023-11-21T06:05:58;3.13;;;1.70;;
505;SDS011;551;48.524;9.056;2023-11-21T06:08:23;2.23;;;1.90;;
505;SDS011;551;48.524;9.056;2023-11-21T06:10:49;2.17;;;1.90;;
505;SDS011;551;48.524;9.056;2023-11-21T06:13:15;2.33;;;1.90;;
505;SDS011;551;48.524;9.056;2023-11-21T06:15:40;3.20;;;2.63;;
505;SDS011;551;48.524;9.056;2023-11-21T06:18:06;2.03;;;1.93;;
505;SDS011;551;48.524;9.056;2023-11-21T06:20:34;2.90;;;1.80;;
505;SDS011;551;48.524;9.056;2023-11-21T06:23:02;2.37;;;1.90;;
505;SDS011;551;48.524;9.056;2023-11-21T06:25:28;3.40;;;2.40;;
505;SDS011;551;48.524;9.056;2023-11-21T06:27:54;4.93;;;2.37;;
505;SDS011;551;48.524;9.056;2023-11-21T06:30:21;3.17;;;2.40;;
505;SDS011;551;48.524;9.056;2023-11-21T06:32:47;2.90;;;2.10;;
505;SDS011;551;48.524;9.056;2023-11-21T06:35:12;2.13;;;2.00;;
505;SDS011;551;48.524;9.056;2023-11-21T06:37:38;3.97;;;1.97;;
505;SDS011;551;48.524;9.056;2023-11-21T06:40:04;1.80;;;1.70;;
505;SDS011;551;48.524;9.056;2023-11-21T06:42:31;2.83;;;2.00;;
505;SDS011;551;48.524;9.056;2023-11-21T06:44:58;3.00;;;2.10;;
505;SDS011;551;48.524;9.056;2023-11-21T06:47:24;2.37;;;1.90;;
505;SDS011;551;48.524;9.056;2023-11-21T06:49:50;2.60;;;2.00;;
505;SDS011;551;48.524;9.056;2023-11-21T06:52:16;3.20;;;2.07;;
505;SDS011;551;48.524;9.056;2023-11-21T06:54:43;2.57;;;1.87;;
505;SDS011;551;48.524;9.056;2023-11-21T06:57:08;3.60;;;1.90;;
505;SDS011;551;48.524;9.056;2023-11-21T06:59:34;2.70;;;1.80;;
505;SDS011;551;48.524;9.056;2023-11-21T07:02:00;5.20;;;2.23;;
505;SDS011;551;48.524;9.056;2023-11-21T07:04:25;2.17;;;1.97;;
505;SDS011;551;48.524;9.056;2023-11-21T07:06:54;4.87;;;2.17;;
505;SDS011;551;48.524;9.056;2023-11-21T07:09:19;3.50;;;2.13;;
505;SDS011;551;48.524;9.056;2023-11-21T07:11:49;3.30;;;3.00;;
505;SDS011;551;48.524;9.056;2023-11-21T07:14:15;3.00;;;2.70;;
505;SDS011;551;48.524;9.056;2023-11-21T07:16:41;6.00;;;2.27;;
505;SDS011;551;48.524;9.056;2023-11-21T07:19:07;3.90;;;2.67;;
505;SDS011;551;48.524;9.056;2023-11-21T07:21:33;12.30;;;2.40;;
505;SDS011;551;48.524;9.056;2023-11-21T07:24:00;5.80;;;2.83;;
505;SDS011;551;48.524;9.056;2023-11-21T07:26:26;4.90;;;2.57;;
505;SDS011;551;48.524;9.056;2023-11-21T07:28:52;3.57;;;2.50;;
505;SDS011;551;48.524;9.056;2023-11-21T07:31:17;3.63;;;2.63;;
505;SDS011;551;48.524;9.056;2023-11-21T07:33:44;2.87;;;2.67;;
505;SDS011;551;48.524;9.056;2023-11-21T07:36:12;6.10;;;1.97;;
505;SDS011;551;48.524;9.056;2023-11-21T07:38:38;3.30;;;2.80;;
505;SDS011;551;48.524;9.056;2023-11-21T07:41:04;7.50;;;2.70;;
505;SDS011;551;48.524;9.056;2023-11-21T07:43:29;4.77;;;2.30;;
505;SDS011;551;48.524;9.056;2023-11-21T07:46:00;3.27;;;1.90;;
505;SDS011;551;48.524;9.056;2023-11-21T07:48:27;4.60;;;2.30;;
505;SDS011;551;48.524;9.056;2023-11-21T07:50:53;2.80;;;2.40;;
505;SDS011;551;48.524;9.056;2023-11-21T07:53:19;1.73;;;1.63;;
505;SDS011;551;48.524;9.056;2023-11-21T07:55:44;2.60;;;1.83;;
505;SDS011;551;48.524;9.056;2023-11-21T07:58:12;4.17;;;1.97;;
505;SDS011;551;48.524;9.056;2023-11-21T08:00:38;7.00;;;2.00;;
505;SDS011;551;48.524;9.056;2023-11-21T08:03:04;2.50;;;1.80;;
505;SDS011;551;48.524;9.056;2023-11-21T08:05:30;2.00;;;1.37;;
505;SDS011;551;48.524;9.056;2023-11-21T08:07:56;8.57;;;2.83;;
505;SDS011;551;48.524;9.056;2023-11-21T08:10:22;2.97;;;2.17;;
505;SDS011;551;48.524;9.056;2023-11-21T08:12:47;6.20;;;2.33;;
505;SDS011;551;48.524;9.056;2023-11-21T08:15:13;5.70;;;3.57;;
505;SDS011;551;48.524;9.056;2023-11-21T08:17:39;5.00;;;4.10;;
505;SDS011;551;48.524;9.056;2023-11-21T08:20:05;9.60;;;3.20;;
505;SDS011;551;48.524;9.056;2023-11-21T08:22:33;5.00;;;3.10;;
505;SDS011;551;48.524;9.056;2023-11-21T08:24:59;32.03;;;5.80;;
505;SDS011;551;48.524;9.056;2023-11-21T08:27:24;6.17;;;3.57;;
505;SDS011;551;48.524;9.056;2023-11-21T08:29:50;5.83;;;2.47;;
505;SDS011;551;48.524;9.056;2023-11-21T08:32:17;6.77;;;3.40;;
505;SDS011;551;48.524;9.056;2023-11-21T08:34:42;5.53;;;2.70;;
505;SDS011;551;48.524;9.056;2023-11-21T08:37:09;5.73;;;2.80;;
505;SDS011;551;48.524;9.056;2023-11-21T08:39:36;4.00;;;2.53;;
505;SDS011;551;48.524;9.056;2023-11-21T08:42:02;2.10;;;1.90;;
505;SDS011;551;48.524;9.056;2023-11-21T08:44:28;1.90;;;1.70;;
505;SDS011;551;48.524;9.056;2023-11-21T08:46:55;1.87;;;1.67;;
505;SDS011;551;48.524;9.056;2023-11-21T08:49:21;3.30;;;2.33;;
505;SDS011;551;48.524;9.056;2023-11-21T08:51:46;3.00;;;2.00;;
505;SDS011;551;48.524;9.056;2023-11-21T08:54:12;3.00;;;2.13;;
505;SDS011;551;48.524;9.056;2023-11-21T08:56:37;6.03;;;2.43;;
505;SDS011;551;48.524;9.056;2023-11-21T08:59:03;4.33;;;1.80;;
505;SDS011;551;48.524;9.056;2023-11-21T09:01:29;2.43;;;1.80;;
505;SDS011;551;48.524;9.056;2023-11-21T09:03:56;2.87;;;2.20;;
505;SDS011;551;48.524;9.056;2023-11-21T09:06:22;2.43;;;1.70;;
505;SDS011;551;48.524;9.056;2023-11-21T09:08:48;3.00;;;1.77;;
505;SDS011;551;48.524;9.056;2023-11-21T09:11:13;2.50;;;1.87;;
505;SDS011;551;48.524;9.056;2023-11-21T09:13:39;3.77;;;1.90;;
505;SDS011;551;48.524;9.056;2023-11-21T09:16:05;4.67;;;2.10;;
505;SDS011;551;48.524;9.056;2023-11-21T09:18:31;2.50;;;2.30;;
505;SDS011;551;48.524;9.056;2023-11-21T09:20:56;3.00;;;1.83;;
505;SDS011;551;48.524;9.056;2023-11-21T09:23:22;2.07;;;1.90;;
505;SDS011;551;48.524;9.056;2023-11-21T09:25:48;6.10;;;1.90;;
505;SDS011;551;48.524;9.056;2023-11-21T09:28:15;19.90;;;2.70;;
505;SDS011;551;48.524;9.056;2023-11-21T09:30:42;2.70;;;2.00;;
505;SDS011;551;48.524;9.056;2023-11-21T09:33:08;2.57;;;1.83;;
505;SDS011;551;48.524;9.056;2023-11-21T09:35:35;1.53;;;1.37;;
505;SDS011;551;48.524;9.056;2023-11-21T09:38:04;3.63;;;1.60;;
505;SDS011;551;48.524;9.056;2023-11-21T09:40:35;3.67;;;1.33;;
505;SDS011;551;48.524;9.056;2023-11-21T09:43:09;2.27;;;2.00;;
505;SDS011;551;48.524;9.056;2023-11-21T09:45:43;2.17;;;1.47;;
505;SDS011;551;48.524;9.056;2023-11-21T09:48:18;3.90;;;1.70;;
505;SDS011;551;48.524;9.056;2023-11-21T09:50:45;2.93;;;2.27;;
505;SDS011;551;48.524;9.056;2023-11-21T09:55:51;6.30;;;2.43;;
505;SDS011;551;48.524;9.056;2023-11-21T09:58:17;2.30;;;2.10;;
505;SDS011;551;48.524;9.056;2023-11-21T10:00:47;3.77;;;1.90;;
505;SDS011;551;48.524;9.056;2023-11-21T10:03:14;3.43;;;1.30;;
505;SDS011;551;48.524;9.056;2023-11-21T10:05:41;7.53;;;2.10;;
505;SDS011;551;48.524;9.056;2023-11-21T10:08:08;1.70;;;1.60;;
505;SDS011;551;48.524;9.056;2023-11-21T10:10:36;1.53;;;1.43;;
505;SDS011;551;48.524;9.056;2023-11-21T10:13:03;2.10;;;1.63;;
505;SDS011;551;48.524;9.056;2023-11-21T10:15:31;4.40;;;1.40;;
505;SDS011;551;48.524;9.056;2023-11-21T10:17:59;1.80;;;1.60;;
505;SDS011;551;48.524;9.056;2023-11-21T10:20:34;1.47;;;1.37;;
505;SDS011;551;48.524;9.056;2023-11-21T10:23:00;1.93;;;1.40;;
505;SDS011;551;48.524;9.056;2023-11-21T10:25:29;3.90;;;1.47;;
505;SDS011;551;48.524;9.056;2023-11-21T10:28:01;3.30;;;1.67;;
505;SDS011;551;48.524;9.056;2023-11-21T10:30:37;2.20;;;2.00;;
505;SDS011;551;48.524;9.056;2023-11-21T10:33:07;2.40;;;1.87;;
505;SDS011;551;48.524;9.056;2023-11-21T10:35:48;2.43;;;1.83;;
505;SDS011;551;48.524;9.056;2023-11-21T10:38:19;2.00;;;1.33;;
505;SDS011;551;48.524;9.056;2023-11-21T10:40:49;1.80;;;1.70;;
505;SDS011;551;48.524;9.056;2023-11-21T10:43:15;2.80;;;1.43;;
505;SDS011;551;48.524;9.056;2023-11-21T10:45:42;1.47;;;1.37;;
505;SDS011;551;48.524;9.056;2023-11-21T10:48:13;2.17;;;1.63;;
505;SDS011;551;48.524;9.056;2023-11-21T10:50:45;1.60;;;1.50;;
505;SDS011;551;48.524;9.056;2023-11-21T10:53:12;1.57;;;1.20;;
505;SDS011;551;48.524;9.056;2023-11-21T10:55:38;2.50;;;1.40;;
505;SDS011;551;48.524;9.056;2023-11-21T10:58:04;3.57;;;1.97;;
505;SDS011;551;48.524;9.056;2023-11-21T11:00:31;2.07;;;1.97;;
505;SDS011;551;48.524;9.056;2023-11-21T11:02:58;1.90;;;1.77;;
505;SDS011;551;48.524;9.056;2023-11-21T11:05:26;6.37;;;3.00;;
505;SDS011;551;48.524;9.056;2023-11-21T11:08:03;3.23;;;2.70;;
505;SDS011;551;48.524;9.056;2023-11-21T11:10:30;2.70;;;1.83;;
505;SDS011;551;48.524;9.056;2023-11-21T11:12:56;1.90;;;1.70;;
505;SDS011;551;48.524;9.056;2023-11-21T11:15:24;1.90;;;1.70;;
505;SDS011;551;48.524;9.056;2023-11-21T11:17:50;2.50;;;2.30;;
505;SDS011;551;48.524;9.056;2023-11-21T11:20:16;3.03;;;2.00;;
505;SDS011;551;48.524;9.056;2023-11-21T11:28:22;2.70;;;1.80;;
505;SDS011;551;48.524;9.056;2023-11-21T11:33:44;1.73;;;1.63;;
505;SDS011;551;48.524;9.056;2023-11-21T11:36:49;2.60;;;1.90;;
505;SDS011;551;48.524;9.056;2023-11-21T11:39:31;1.43;;;1.30;;
505;SDS011;551;48.524;9.056;2023-11-21T11:42:01;1.93;;;1.60;;
505;SDS011;551;48.524;9.056;2023-11-21T11:47:16;2.33;;;1.47;;
505;SDS011;551;48.524;9.056;2023-11-21T11:52:46;2.23;;;2.00;;
505;SDS011;551;48.524;9.056;2023-11-21T11:55:14;2.00;;;1.90;;
505;SDS011;551;48.524;9.056;2023-11-21T11:57:43;2.70;;;2.47;;
505;SDS011;551;48.524;9.056;2023-11-21T12:02:47;4.90;;;1.70;;
505;SDS011;551;48.524;9.056;2023-11-21T12:05:15;3.13;;;2.20;;
505;SDS011;551;48.524;9.056;2023-11-21T12:07:43;2.43;;;1.97;;
505;SDS011;551;48.524;9.056;2023-11-21T12:10:11;2.00;;;1.80;;
505;SDS011;551;48.524;9.056;2023-11-21T12:12:41;2.63;;;1.77;;
505;SDS011;551;48.524;9.056;2023-11-21T12:15:08;2.20;;;1.60;;
505;SDS011;551;48.524;9.056;2023-11-21T12:17:34;2.33;;;2.10;;
505;SDS011;551;48.524;9.056;2023-11-21T12:20:03;1.40;;;1.30;;
505;SDS011;551;48.524;9.056;2023-11-21T12:22:30;1.73;;;1.63;;
505;SDS011;551;48.524;9.056;2023-11-21T12:24:56;4.87;;;1.53;;
505;SDS011;551;48.524;9.056;2023-11-21T12:27:22;4.37;;;1.60;;
505;SDS011;551;48.524;9.056;2023-11-21T12:29:47;1.63;;;1.53;;
505;SDS011;551;48.524;9.056;2023-11-21T12:32:13;3.47;;;1.70;;
505;SDS011;551;48.524;9.056;2023-11-21T12:34:40;1.60;;;1.50;;
505;SDS011;551;48.524;9.056;2023-11-21T12:37:06;3.00;;;1.70;;
505;SDS011;551;48.524;9.056;2023-11-21T12:39:31;1.93;;;1.30;;
505;SDS011;551;48.524;9.056;2023-11-21T12:41:57;2.93;;;1.40;;
505;SDS011;551;48.524;9.056;2023-11-21T12:44:22;1.97;;;1.60;;
505;SDS011;551;48.524;9.056;2023-11-21T12:46:49;1.57;;;1.40;;
505;SDS011;551;48.524;9.056;2023-11-21T12:49:15;1.60;;;1.50;;
505;SDS011;551;48.524;9.056;2023-11-21T12:51:44;1.80;;;1.40;;
505;SDS011;551;48.524;9.056;2023-11-21T12:54:11;1.70;;;1.60;;
505;SDS011;551;48.524;9.056;2023-11-21T12:56:40;1.70;;;1.50;;
505;SDS011;551;48.524;9.056;2023-11-21T12:59:06;4.30;;;1.87;;
505;SDS011;551;48.524;9.056;2023-11-21T13:01:32;2.10;;;1.60;;
505;SDS011;551;48.524;9.056;2023-11-21T13:03:59;1.67;;;1.40;;
505;SDS011;551;48.524;9.056;2023-11-21T13:06:25;1.70;;;1.60;;
505;SDS011;551;48.524;9.056;2023-11-21T13:08:51;1.67;;;1.50;;
505;SDS011;551;48.524;9.056;2023-11-21T13:11:17;2.10;;;1.77;;
505;SDS011;551;48.524;9.056;2023-11-21T13:13:43;3.00;;;2.03;;
505;SDS011;551;48.524;9.056;2023-11-21T13:16:08;7.90;;;2.47;;
505;SDS011;551;48.524;9.056;2023-11-21T13:18:34;2.63;;;2.07;;
505;SDS011;551;48.524;9.056;2023-11-21T13:21:02;5.87;;;2.40;;
505;SDS011;551;48.524;9.056;2023-11-21T13:23:39;2.63;;;2.20;;
505;SDS011;551;48.524;9.056;2023-11-21T13:26:06;2.40;;;2.20;;
505;SDS011;551;48.524;9.056;2023-11-21T13:28:33;2.73;;;2.10;;
505;SDS011;551;48.524;9.056;2023-11-21T13:31:00;2.70;;;2.50;;
505;SDS011;551;48.524;9.056;2023-11-21T13:33:29;2.50;;;2.30;;
505;SDS011;551;48.524;9.056;2023-11-21T13:35:55;2.30;;;2.10;;
505;SDS011;551;48.524;9.056;2023-11-21T13:38:21;3.03;;;2.50;;
505;SDS011;551;48.524;9.056;2023-11-21T13:40:55;4.00;;;2.33;;
505;SDS011;551;48.524;9.056;2023-11-21T13:43:24;2.43;;;2.00;;
505;SDS011;551;48.524;9.056;2023-11-21T13:45:51;3.33;;;2.40;;
505;SDS011;551;48.524;9.056;2023-11-21T13:48:37;4.43;;;2.23;;
505;SDS011;551;48.524;9.056;2023-11-21T13:51:07;2.20;;;1.70;;
505;SDS011;551;48.524;9.056;2023-11-21T13:54:02;3.37;;;2.00;;
505;SDS011;551;48.524;9.056;2023-11-21T13:56:30;9.00;;;3.40;;
505;SDS011;551;48.524;9.056;2023-11-21T13:58:56;5.80;;;2.60;;
505;SDS011;551;48.524;9.056;2023-11-21T14:01:24;2.20;;;2.00;;
505;SDS011;551;48.524;9.056;2023-11-21T14:03:54;2.30;;;2.00;;
505;SDS011;551;48.524;9.056;2023-11-21T14:06:28;2.30;;;2.10;;
505;SDS011;551;48.524;9.056;2023-11-21T14:08:59;1.50;;;1.30;;
505;SDS011;551;48.524;9.056;2023-11-21T14:11:31;3.10;;;1.80;;
505;SDS011;551;48.524;9.056;2023-11-21T14:13:57;3.23;;;1.70;;
505;SDS011;551;48.524;9.056;2023-11-21T14:16:24;6.00;;;1.73;;
505;SDS011;551;48.524;9.056;2023-11-21T14:18:50;1.93;;;1.83;;
505;SDS011;551;48.524;9.056;2023-11-21T14:21:26;2.60;;;2.10;;
505;SDS011;551;48.524;9.056;2023-11-21T14:23:52;3.97;;;1.80;;
505;SDS011;551;48.524;9.056;2023-11-21T14:26:19;2.60;;;1.80;;
505;SDS011;551;48.524;9.056;2023-11-21T14:28:45;3.30;;;2.07;;
505;SDS011;551;48.524;9.056;2023-11-21T14:31:13;4.30;;;2.97;;
505;SDS011;551;48.524;9.056;2023-11-21T14:33:41;4.60;;;2.27;;
505;SDS011;551;48.524;9.056;2023-11-21T14:36:08;3.17;;;2.90;;
505;SDS011;551;48.524;9.056;2023-11-21T14:38:37;22.50;;;10.07;;
505;SDS011;551;48.524;9.056;2023-11-21T14:41:04;2.57;;;2.27;;
505;SDS011;551;48.524;9.056;2023-11-21T14:43:33;2.30;;;2.10;;
505;SDS011;551;48.524;9.056;2023-11-21T14:46:03;1.50;;;1.20;;
505;SDS011;551;48.524;9.056;2023-11-21T14:48:31;2.33;;;2.00;;
505;SDS011;551;48.524;9.056;2023-11-21T14:51:08;1.27;;;1.17;;
505;SDS011;551;48.524;9.056;2023-11-21T14:53:55;1.50;;;1.40;;
505;SDS011;551;48.524;9.056;2023-11-21T14:56:32;2.30;;;1.33;;
505;SDS011;551;48.524;9.056;2023-11-21T14:59:00;3.53;;;1.30;;
505;SDS011;551;48.524;9.056;2023-11-21T15:01:41;1.57;;;1.37;;
505;SDS011;551;48.524;9.056;2023-11-21T15:04:18;3.00;;;1.40;;
505;SDS011;551;48.524;9.056;2023-11-21T15:07:03;1.20;;;1.10;;
505;SDS011;551;48.524;9.056;2023-11-21T15:09:29;1.27;;;1.17;;
505;SDS011;551;48.524;9.056;2023-11-21T15:12:06;1.50;;;1.40;;
505;SDS011;551;48.524;9.056;2023-11-21T15:14:42;1.07;;;1.03;;
505;SDS011;551;48.524;9.056;2023-11-21T15:17:18;1.30;;;1.20;;
505;SDS011;551;48.524;9.056;2023-11-21T15:19:51;5.20;;;1.47;;
505;SDS011;551;48.524;9.056;2023-11-21T15:22:17;1.30;;;1.20;;
505;SDS011;551;48.524;9.056;2023-11-21T15:24:43;3.03;;;1.20;;
505;SDS011;551;48.524;9.056;2023-11-21T15:27:11;1.83;;;1.50;;
505;SDS011;551;48.524;9.056;2023-11-21T15:29:40;1.53;;;1.43;;
505;SDS011;551;48.524;9.056;2023-11-21T15:32:07;2.23;;;1.40;;
505;SDS011;551;48.524;9.056;2023-11-21T15:34:34;6.00;;;1.90;;
505;SDS011;551;48.524;9.056;2023-11-21T15:37:00;2.10;;;1.50;;
505;SDS011;551;48.524;9.056;2023-11-21T15:39:25;1.57;;;1.40;;
505;SDS011;551;48.524;9.056;2023-11-21T15:42:02;1.87;;;1.40;;
505;SDS011;551;48.524;9.056;2023-11-21T15:44:29;1.40;;;1.30;;
505;SDS011;551;48.524;9.056;2023-11-21T15:46:56;1.37;;;1.20;;
505;SDS011;551;48.524;9.056;2023-11-21T15:49:22;2.40;;;1.60;;
505;SDS011;551;48.524;9.056;2023-11-21T15:51:50;1.40;;;1.30;;
505;SDS011;551;48.524;9.056;2023-11-21T15:54:31;1.70;;;1.60;;
505;SDS011;551;48.524;9.056;2023-11-21T15:56:59;2.43;;;1.90;;
505;SDS011;551;48.524;9.056;2023-11-21T15:59:25;2.80;;;2.10;;
505;SDS011;551;48.524;9.056;2023-11-21T16:01:56;2.27;;;1.50;;
505;SDS011;551;48.524;9.056;2023-11-21T16:04:22;3.63;;;1.70;;